sensor_id;sensor_type;location;lat;lon;timestamp;temperature;humidity
24374;DHT22;12498;50.880;12.096;2022-09-02T00:00:49;13.70;99.90
24374;DHT22;12498;50.880;12.096;2022-09-02T00:03:15;13.70;99.90
24374;DHT22;12498;50.880;12.096;2022-09-02T00:05:41;13.60;99.90
24374;DHT22;12498;50.880;12.096;2022-09-02T00:08:08;13.50;99.90
24374;DHT22;12498;50.880;12.096;2022-09-02T00:10:39;13.50;99.90
24374;DHT22;12498;50.880;12.096;2022-09-02T00:13:07;13.50;99.90
24374;DHT22;12498;50.880;12.096;2022-09-02T00:15:34;13.50;99.90
24374;DHT22;12498;50.880;12.096;2022-09-02T00:18:00;13.40;99.90
24374;DHT22;12498;50.880;12.096;2022-09-02T00:20:27;13.40;99.90
24374;DHT22;12498;50.880;12.096;2022-09-02T00:22:54;13.40;99.90
24374;DHT22;12498;50.880;12.096;2022-09-02T00:25:19;13.30;99.90
24374;DHT22;12498;50.880;12.096;2022-09-02T00:27:45;13.40;99.90
24374;DHT22;12498;50.880;12.096;2022-09-02T00:30:12;13.40;99.90
24374;DHT22;12498;50.880;12.096;2022-09-02T00:32:38;13.30;99.90
24374;DHT22;12498;50.880;12.096;2022-09-02T00:35:04;13.30;99.90
24374;DHT22;12498;50.880;12.096;2022-09-02T00:37:30;13.30;99.90
24374;DHT22;12498;50.880;12.096;2022-09-02T00:39:56;13.30;99.90
24374;DHT22;12498;50.880;12.096;2022-09-02T00:42:24;13.20;99.90
24374;DHT22;12498;50.880;12.096;2022-09-02T00:44:51;13.20;99.90
24374;DHT22;12498;50.880;12.096;2022-09-02T00:47:18;13.20;99.90
24374;DHT22;12498;50.880;12.096;2022-09-02T00:49:46;13.20;99.90
24374;DHT22;12498;50.880;12.096;2022-09-02T00:52:51;13.10;99.90
24374;DHT22;12498;50.880;12.096;2022-09-02T00:55:25;13.20;99.90
24374;DHT22;12498;50.880;12.096;2022-09-02T00:57:54;13.20;99.90
24374;DHT22;12498;50.880;12.096;2022-09-02T01:00:34;13.20;99.90
24374;DHT22;12498;50.880;12.096;2022-09-02T01:03:06;13.10;99.90
24374;DHT22;12498;50.880;12.096;2022-09-02T01:05:33;13.00;99.90
24374;DHT22;12498;50.880;12.096;2022-09-02T01:08:01;13.00;99.90
24374;DHT22;12498;50.880;12.096;2022-09-02T01:10:32;13.00;99.90
24374;DHT22;12498;50.880;12.096;2022-09-02T01:13:07;12.90;99.90
24374;DHT22;12498;50.880;12.096;2022-09-02T01:15:38;12.90;99.90
24374;DHT22;12498;50.880;12.096;2022-09-02T01:18:05;12.90;99.90
24374;DHT22;12498;50.880;12.096;2022-09-02T01:20:32;12.90;99.90
24374;DHT22;12498;50.880;12.096;2022-09-02T01:22:58;12.80;99.90
24374;DHT22;12498;50.880;12.096;2022-09-02T01:25:28;12.80;99.90
24374;DHT22;12498;50.880;12.096;2022-09-02T01:28:04;12.80;99.90
24374;DHT22;12498;50.880;12.096;2022-09-02T01:30:31;12.70;99.90
24374;DHT22;12498;50.880;12.096;2022-09-02T01:32:57;12.70;99.90
24374;DHT22;12498;50.880;12.096;2022-09-02T01:35:23;12.70;99.90
24374;DHT22;12498;50.880;12.096;2022-09-02T01:37:56;12.60;99.90
24374;DHT22;12498;50.880;12.096;2022-09-02T01:40:23;12.60;99.90
24374;DHT22;12498;50.880;12.096;2022-09-02T01:42:54;12.50;99.90
24374;DHT22;12498;50.880;12.096;2022-09-02T01:45:20;12.50;99.90
24374;DHT22;12498;50.880;12.096;2022-09-02T01:47:46;12.50;99.90
24374;DHT22;12498;50.880;12.096;2022-09-02T01:50:12;12.40;99.90
24374;DHT22;12498;50.880;12.096;2022-09-02T01:52:38;12.50;99.90
24374;DHT22;12498;50.880;12.096;2022-09-02T01:55:05;12.40;99.90
24374;DHT22;12498;50.880;12.096;2022-09-02T01:57:30;12.40;99.90
24374;DHT22;12498;50.880;12.096;2022-09-02T01:59:56;12.40;99.90
24374;DHT22;12498;50.880;12.096;2022-09-02T02:02:22;12.40;99.90
24374;DHT22;12498;50.880;12.096;2022-09-02T02:04:48;12.30;99.90
24374;DHT22;12498;50.880;12.096;2022-09-02T02:07:15;12.40;99.90
24374;DHT22;12498;50.880;12.096;2022-09-02T02:09:42;12.30;99.90
24374;DHT22;12498;50.880;12.096;2022-09-02T02:12:08;12.30;99.90
24374;DHT22;12498;50.880;12.096;2022-09-02T02:14:35;12.20;99.90
24374;DHT22;12498;50.880;12.096;2022-09-02T02:17:01;12.20;99.90
24374;DHT22;12498;50.880;12.096;2022-09-02T02:19:27;12.20;99.90
24374;DHT22;12498;50.880;12.096;2022-09-02T02:21:53;12.30;99.90
24374;DHT22;12498;50.880;12.096;2022-09-02T02:24:18;12.30;99.90
24374;DHT22;12498;50.880;12.096;2022-09-02T02:26:45;12.30;99.90
24374;DHT22;12498;50.880;12.096;2022-09-02T02:29:11;12.30;99.90
24374;DHT22;12498;50.880;12.096;2022-09-02T02:31:37;12.20;99.90
24374;DHT22;12498;50.880;12.096;2022-09-02T02:34:03;12.20;99.90
24374;DHT22;12498;50.880;12.096;2022-09-02T02:36:29;12.10;99.90
24374;DHT22;12498;50.880;12.096;2022-09-02T02:38:54;12.20;99.90
24374;DHT22;12498;50.880;12.096;2022-09-02T02:41:20;12.20;99.90
24374;DHT22;12498;50.880;12.096;2022-09-02T02:43:46;12.20;99.90
24374;DHT22;12498;50.880;12.096;2022-09-02T02:46:12;12.20;99.90
24374;DHT22;12498;50.880;12.096;2022-09-02T02:48:39;12.10;99.90
24374;DHT22;12498;50.880;12.096;2022-09-02T02:51:06;12.10;99.90
24374;DHT22;12498;50.880;12.096;2022-09-02T02:53:32;12.10;99.90
24374;DHT22;12498;50.880;12.096;2022-09-02T02:56:02;12.10;99.90
24374;DHT22;12498;50.880;12.096;2022-09-02T02:58:32;12.10;99.90
24374;DHT22;12498;50.880;12.096;2022-09-02T03:00:58;12.20;99.90
24374;DHT22;12498;50.880;12.096;2022-09-02T03:03:25;12.10;99.90
24374;DHT22;12498;50.880;12.096;2022-09-02T03:05:53;12.10;99.90
24374;DHT22;12498;50.880;12.096;2022-09-02T03:08:20;12.00;99.90
24374;DHT22;12498;50.880;12.096;2022-09-02T03:10:47;12.00;99.90
24374;DHT22;12498;50.880;12.096;2022-09-02T03:13:15;12.00;99.90
24374;DHT22;12498;50.880;12.096;2022-09-02T03:15:42;12.00;99.90
24374;DHT22;12498;50.880;12.096;2022-09-02T03:18:08;12.00;99.90
24374;DHT22;12498;50.880;12.096;2022-09-02T03:20:34;12.00;99.90
24374;DHT22;12498;50.880;12.096;2022-09-02T03:23:00;12.00;99.90
24374;DHT22;12498;50.880;12.096;2022-09-02T03:25:28;12.00;99.90
24374;DHT22;12498;50.880;12.096;2022-09-02T03:27:54;12.00;99.90
24374;DHT22;12498;50.880;12.096;2022-09-02T03:30:24;11.90;99.90
24374;DHT22;12498;50.880;12.096;2022-09-02T03:32:51;11.90;99.90
24374;DHT22;12498;50.880;12.096;2022-09-02T03:35:18;11.80;99.90
24374;DHT22;12498;50.880;12.096;2022-09-02T03:37:46;11.80;99.90
24374;DHT22;12498;50.880;12.096;2022-09-02T03:40:15;11.70;99.90
24374;DHT22;12498;50.880;12.096;2022-09-02T03:42:40;11.70;99.90
24374;DHT22;12498;50.880;12.096;2022-09-02T03:45:08;11.70;99.90
24374;DHT22;12498;50.880;12.096;2022-09-02T03:47:35;11.70;99.90
24374;DHT22;12498;50.880;12.096;2022-09-02T03:50:00;11.70;99.90
24374;DHT22;12498;50.880;12.096;2022-09-02T03:52:28;11.70;99.90
24374;DHT22;12498;50.880;12.096;2022-09-02T03:54:54;11.60;99.90
24374;DHT22;12498;50.880;12.096;2022-09-02T03:57:19;11.70;99.90
24374;DHT22;12498;50.880;12.096;2022-09-02T03:59:47;11.60;99.90
24374;DHT22;12498;50.880;12.096;2022-09-02T04:02:13;11.60;99.90
24374;DHT22;12498;50.880;12.096;2022-09-02T04:04:39;11.60;99.90
24374;DHT22;12498;50.880;12.096;2022-09-02T04:07:04;11.60;99.90
24374;DHT22;12498;50.880;12.096;2022-09-02T04:09:30;11.60;99.90
24374;DHT22;12498;50.880;12.096;2022-09-02T04:11:55;11.70;99.90
24374;DHT22;12498;50.880;12.096;2022-09-02T04:14:21;11.60;99.90
24374;DHT22;12498;50.880;12.096;2022-09-02T04:16:47;11.80;99.90
24374;DHT22;12498;50.880;12.096;2022-09-02T04:19:12;12.10;99.90
24374;DHT22;12498;50.880;12.096;2022-09-02T04:21:39;12.30;99.90
24374;DHT22;12498;50.880;12.096;2022-09-02T04:24:07;12.50;99.90
24374;DHT22;12498;50.880;12.096;2022-09-02T04:26:34;12.50;99.90
24374;DHT22;12498;50.880;12.096;2022-09-02T04:29:00;12.60;99.90
24374;DHT22;12498;50.880;12.096;2022-09-02T04:31:27;12.70;99.90
24374;DHT22;12498;50.880;12.096;2022-09-02T04:33:55;12.70;99.90
24374;DHT22;12498;50.880;12.096;2022-09-02T04:36:21;12.60;99.90
24374;DHT22;12498;50.880;12.096;2022-09-02T04:38:47;12.60;99.90
24374;DHT22;12498;50.880;12.096;2022-09-02T04:41:16;12.60;99.90
24374;DHT22;12498;50.880;12.096;2022-09-02T04:43:45;12.70;99.90
24374;DHT22;12498;50.880;12.096;2022-09-02T04:46:12;12.70;99.90
24374;DHT22;12498;50.880;12.096;2022-09-02T04:48:38;12.80;99.90
24374;DHT22;12498;50.880;12.096;2022-09-02T04:51:16;12.70;99.90
24374;DHT22;12498;50.880;12.096;2022-09-02T04:53:42;12.70;99.90
24374;DHT22;12498;50.880;12.096;2022-09-02T04:56:10;12.70;99.90
24374;DHT22;12498;50.880;12.096;2022-09-02T04:58:37;12.70;99.90
24374;DHT22;12498;50.880;12.096;2022-09-02T05:01:08;12.70;99.90
24374;DHT22;12498;50.880;12.096;2022-09-02T05:03:35;12.70;99.90
24374;DHT22;12498;50.880;12.096;2022-09-02T05:06:03;12.60;99.90
24374;DHT22;12498;50.880;12.096;2022-09-02T05:08:28;12.70;99.90
24374;DHT22;12498;50.880;12.096;2022-09-02T05:10:54;12.80;99.90
24374;DHT22;12498;50.880;12.096;2022-09-02T05:13:20;12.50;99.90
24374;DHT22;12498;50.880;12.096;2022-09-02T05:15:46;12.30;99.90
24374;DHT22;12498;50.880;12.096;2022-09-02T05:18:12;12.10;99.90
24374;DHT22;12498;50.880;12.096;2022-09-02T05:20:38;12.10;99.90
24374;DHT22;12498;50.880;12.096;2022-09-02T05:23:05;12.00;99.90
24374;DHT22;12498;50.880;12.096;2022-09-02T05:25:31;11.90;99.90
24374;DHT22;12498;50.880;12.096;2022-09-02T05:27:57;11.90;99.90
24374;DHT22;12498;50.880;12.096;2022-09-02T05:30:23;11.90;99.90
24374;DHT22;12498;50.880;12.096;2022-09-02T05:32:48;12.00;99.90
24374;DHT22;12498;50.880;12.096;2022-09-02T05:35:15;11.90;99.90
24374;DHT22;12498;50.880;12.096;2022-09-02T05:37:41;11.90;99.90
24374;DHT22;12498;50.880;12.096;2022-09-02T05:40:07;12.00;99.90
24374;DHT22;12498;50.880;12.096;2022-09-02T05:42:33;12.00;99.90
24374;DHT22;12498;50.880;12.096;2022-09-02T05:44:59;12.00;99.90
24374;DHT22;12498;50.880;12.096;2022-09-02T05:47:25;12.00;99.90
24374;DHT22;12498;50.880;12.096;2022-09-02T05:49:51;12.00;99.90
24374;DHT22;12498;50.880;12.096;2022-09-02T05:52:17;12.00;99.90
24374;DHT22;12498;50.880;12.096;2022-09-02T05:54:43;12.00;99.90
24374;DHT22;12498;50.880;12.096;2022-09-02T05:57:12;12.10;99.90
24374;DHT22;12498;50.880;12.096;2022-09-02T05:59:39;12.10;99.90
24374;DHT22;12498;50.880;12.096;2022-09-02T06:02:10;12.10;99.90
24374;DHT22;12498;50.880;12.096;2022-09-02T06:04:40;12.10;99.90
24374;DHT22;12498;50.880;12.096;2022-09-02T06:07:06;12.10;99.90
24374;DHT22;12498;50.880;12.096;2022-09-02T06:09:32;12.10;99.90
24374;DHT22;12498;50.880;12.096;2022-09-02T06:11:58;12.10;99.90
24374;DHT22;12498;50.880;12.096;2022-09-02T06:14:24;12.20;99.90
24374;DHT22;12498;50.880;12.096;2022-09-02T06:16:52;12.20;99.90
24374;DHT22;12498;50.880;12.096;2022-09-02T06:19:20;12.20;99.90
24374;DHT22;12498;50.880;12.096;2022-09-02T06:21:47;12.30;99.90
24374;DHT22;12498;50.880;12.096;2022-09-02T06:24:13;12.30;99.90
24374;DHT22;12498;50.880;12.096;2022-09-02T06:26:39;12.40;99.90
24374;DHT22;12498;50.880;12.096;2022-09-02T06:29:06;12.50;99.90
24374;DHT22;12498;50.880;12.096;2022-09-02T06:31:32;12.60;99.90
24374;DHT22;12498;50.880;12.096;2022-09-02T06:33:59;12.70;99.90
24374;DHT22;12498;50.880;12.096;2022-09-02T06:36:27;12.80;99.90
24374;DHT22;12498;50.880;12.096;2022-09-02T06:38:55;12.90;99.90
24374;DHT22;12498;50.880;12.096;2022-09-02T06:41:27;13.00;99.90
24374;DHT22;12498;50.880;12.096;2022-09-02T06:43:58;13.10;99.90
24374;DHT22;12498;50.880;12.096;2022-09-02T06:46:29;13.10;99.90
24374;DHT22;12498;50.880;12.096;2022-09-02T06:48:55;13.30;99.90
24374;DHT22;12498;50.880;12.096;2022-09-02T06:51:27;13.30;99.90
24374;DHT22;12498;50.880;12.096;2022-09-02T06:53:53;13.30;99.90
24374;DHT22;12498;50.880;12.096;2022-09-02T06:56:19;13.50;99.90
24374;DHT22;12498;50.880;12.096;2022-09-02T06:58:44;13.70;99.90
24374;DHT22;12498;50.880;12.096;2022-09-02T07:01:17;13.70;99.90
24374;DHT22;12498;50.880;12.096;2022-09-02T07:03:43;13.80;99.90
24374;DHT22;12498;50.880;12.096;2022-09-02T07:06:27;13.80;99.90
24374;DHT22;12498;50.880;12.096;2022-09-02T07:08:52;14.20;99.90
24374;DHT22;12498;50.880;12.096;2022-09-02T07:11:21;14.50;99.90
24374;DHT22;12498;50.880;12.096;2022-09-02T07:13:47;14.60;99.90
24374;DHT22;12498;50.880;12.096;2022-09-02T07:16:13;14.60;99.90
24374;DHT22;12498;50.880;12.096;2022-09-02T07:18:39;14.60;99.90
24374;DHT22;12498;50.880;12.096;2022-09-02T07:21:09;14.80;99.90
24374;DHT22;12498;50.880;12.096;2022-09-02T07:23:35;14.80;99.90
24374;DHT22;12498;50.880;12.096;2022-09-02T07:26:00;14.90;99.90
24374;DHT22;12498;50.880;12.096;2022-09-02T07:28:26;14.70;99.90
24374;DHT22;12498;50.880;12.096;2022-09-02T07:30:52;14.60;99.90
24374;DHT22;12498;50.880;12.096;2022-09-02T07:33:20;14.70;99.90
24374;DHT22;12498;50.880;12.096;2022-09-02T07:35:47;14.80;99.90
24374;DHT22;12498;50.880;12.096;2022-09-02T07:38:13;15.10;99.90
24374;DHT22;12498;50.880;12.096;2022-09-02T07:40:40;15.30;99.90
24374;DHT22;12498;50.880;12.096;2022-09-02T07:43:08;15.30;99.90
24374;DHT22;12498;50.880;12.096;2022-09-02T07:45:35;15.20;99.90
24374;DHT22;12498;50.880;12.096;2022-09-02T07:48:01;15.20;99.90
24374;DHT22;12498;50.880;12.096;2022-09-02T07:50:27;15.30;99.90
24374;DHT22;12498;50.880;12.096;2022-09-02T07:52:57;15.40;99.90
24374;DHT22;12498;50.880;12.096;2022-09-02T07:55:24;15.40;98.40
24374;DHT22;12498;50.880;12.096;2022-09-02T07:57:50;15.40;98.30
24374;DHT22;12498;50.880;12.096;2022-09-02T08:00:18;15.50;99.90
24374;DHT22;12498;50.880;12.096;2022-09-02T08:02:45;15.50;97.60
24374;DHT22;12498;50.880;12.096;2022-09-02T08:05:11;15.50;96.40
24374;DHT22;12498;50.880;12.096;2022-09-02T08:07:37;15.60;95.30
24374;DHT22;12498;50.880;12.096;2022-09-02T08:10:05;15.70;93.30
24374;DHT22;12498;50.880;12.096;2022-09-02T08:12:34;15.70;94.00
24374;DHT22;12498;50.880;12.096;2022-09-02T08:14:59;15.80;93.00
24374;DHT22;12498;50.880;12.096;2022-09-02T08:17:25;15.80;93.00
24374;DHT22;12498;50.880;12.096;2022-09-02T08:19:50;16.00;92.00
24374;DHT22;12498;50.880;12.096;2022-09-02T08:22:16;16.00;92.20
24374;DHT22;12498;50.880;12.096;2022-09-02T08:24:42;16.10;90.80
24374;DHT22;12498;50.880;12.096;2022-09-02T08:27:07;16.20;90.00
24374;DHT22;12498;50.880;12.096;2022-09-02T08:29:33;16.30;86.40
24374;DHT22;12498;50.880;12.096;2022-09-02T08:32:00;16.40;82.00
24374;DHT22;12498;50.880;12.096;2022-09-02T08:34:26;16.50;80.60
24374;DHT22;12498;50.880;12.096;2022-09-02T08:36:51;16.60;77.10
24374;DHT22;12498;50.880;12.096;2022-09-02T08:39:17;16.70;77.40
24374;DHT22;12498;50.880;12.096;2022-09-02T08:42:01;16.80;68.30
24374;DHT22;12498;50.880;12.096;2022-09-02T08:44:33;16.90;69.60
24374;DHT22;12498;50.880;12.096;2022-09-02T08:47:01;17.00;99.90
24374;DHT22;12498;50.880;12.096;2022-09-02T08:49:33;17.10;99.90
24374;DHT22;12498;50.880;12.096;2022-09-02T08:52:02;17.20;99.90
24374;DHT22;12498;50.880;12.096;2022-09-02T08:54:43;17.30;99.90
24374;DHT22;12498;50.880;12.096;2022-09-02T08:57:10;17.40;99.90
24374;DHT22;12498;50.880;12.096;2022-09-02T08:59:37;17.50;99.90
24374;DHT22;12498;50.880;12.096;2022-09-02T09:10:24;17.90;99.90
24374;DHT22;12498;50.880;12.096;2022-09-02T09:18:41;18.20;99.90
24374;DHT22;12498;50.880;12.096;2022-09-02T09:21:09;18.30;99.90
24374;DHT22;12498;50.880;12.096;2022-09-02T09:23:37;18.30;99.90
24374;DHT22;12498;50.880;12.096;2022-09-02T09:28:43;18.50;99.90
24374;DHT22;12498;50.880;12.096;2022-09-02T09:31:17;18.60;99.90
24374;DHT22;12498;50.880;12.096;2022-09-02T09:39:17;18.80;99.90
24374;DHT22;12498;50.880;12.096;2022-09-02T09:41:43;19.00;99.90
24374;DHT22;12498;50.880;12.096;2022-09-02T09:44:10;19.10;99.90
24374;DHT22;12498;50.880;12.096;2022-09-02T09:46:35;19.30;99.90
24374;DHT22;12498;50.880;12.096;2022-09-02T09:49:01;19.50;99.90
24374;DHT22;12498;50.880;12.096;2022-09-02T09:51:26;19.60;99.90
24374;DHT22;12498;50.880;12.096;2022-09-02T09:54:13;19.80;99.90
24374;DHT22;12498;50.880;12.096;2022-09-02T09:56:40;20.00;99.90
24374;DHT22;12498;50.880;12.096;2022-09-02T09:59:07;20.10;99.90
24374;DHT22;12498;50.880;12.096;2022-09-02T10:01:34;20.40;99.90
24374;DHT22;12498;50.880;12.096;2022-09-02T10:09:50;22.50;99.90
24374;DHT22;12498;50.880;12.096;2022-09-02T10:12:03;23.90;97.00
24374;DHT22;12498;50.880;12.096;2022-09-02T10:14:37;25.40;94.70
24374;DHT22;12498;50.880;12.096;2022-09-02T10:23:11;28.40;72.80
24374;DHT22;12498;50.880;12.096;2022-09-02T10:37:16;26.10;73.80
24374;DHT22;12498;50.880;12.096;2022-09-02T10:42:59;25.60;71.20
24374;DHT22;12498;50.880;12.096;2022-09-02T10:45:44;24.70;72.50
24374;DHT22;12498;50.880;12.096;2022-09-02T10:56:02;26.10;68.80
24374;DHT22;12498;50.880;12.096;2022-09-02T11:01:18;29.00;58.80
24374;DHT22;12498;50.880;12.096;2022-09-02T11:04:02;27.50;60.10
24374;DHT22;12498;50.880;12.096;2022-09-02T11:06:34;26.50;62.80
24374;DHT22;12498;50.880;12.096;2022-09-02T11:09:10;25.40;64.10
24374;DHT22;12498;50.880;12.096;2022-09-02T11:14:32;24.30;68.00
24374;DHT22;12498;50.880;12.096;2022-09-02T11:17:08;24.30;69.60
24374;DHT22;12498;50.880;12.096;2022-09-02T11:22:50;24.50;67.30
24374;DHT22;12498;50.880;12.096;2022-09-02T11:31:09;24.00;66.80
24374;DHT22;12498;50.880;12.096;2022-09-02T11:34:32;24.10;66.40
24374;DHT22;12498;50.880;12.096;2022-09-02T11:36:38;24.20;66.60
24374;DHT22;12498;50.880;12.096;2022-09-02T11:39:11;24.80;66.80
24374;DHT22;12498;50.880;12.096;2022-09-02T11:42:18;27.40;63.10
24374;DHT22;12498;50.880;12.096;2022-09-02T11:50:22;27.00;58.80
24374;DHT22;12498;50.880;12.096;2022-09-02T11:55:47;25.90;63.10
24374;DHT22;12498;50.880;12.096;2022-09-02T12:03:59;25.20;63.70
24374;DHT22;12498;50.880;12.096;2022-09-02T12:06:25;25.80;63.60
24374;DHT22;12498;50.880;12.096;2022-09-02T12:11:37;28.60;56.90
24374;DHT22;12498;50.880;12.096;2022-09-02T12:14:08;29.30;54.40
24374;DHT22;12498;50.880;12.096;2022-09-02T12:16:43;28.90;54.90
24374;DHT22;12498;50.880;12.096;2022-09-02T12:21:36;28.00;54.70
24374;DHT22;12498;50.880;12.096;2022-09-02T12:24:21;27.50;54.70
24374;DHT22;12498;50.880;12.096;2022-09-02T12:31:50;28.90;52.40
24374;DHT22;12498;50.880;12.096;2022-09-02T12:45:22;27.30;55.70
24374;DHT22;12498;50.880;12.096;2022-09-02T12:50:30;29.00;51.50
24374;DHT22;12498;50.880;12.096;2022-09-02T12:56:06;28.00;52.80
24374;DHT22;12498;50.880;12.096;2022-09-02T12:58:45;27.00;52.60
24374;DHT22;12498;50.880;12.096;2022-09-02T13:01:16;26.20;54.30
24374;DHT22;12498;50.880;12.096;2022-09-02T13:04:05;25.80;55.00
24374;DHT22;12498;50.880;12.096;2022-09-02T13:06:43;25.50;55.70
24374;DHT22;12498;50.880;12.096;2022-09-02T13:17:36;25.50;56.70
24374;DHT22;12498;50.880;12.096;2022-09-02T13:34:03;29.60;51.30
24374;DHT22;12498;50.880;12.096;2022-09-02T13:36:43;32.20;48.00
24374;DHT22;12498;50.880;12.096;2022-09-02T13:39:15;33.90;44.80
24374;DHT22;12498;50.880;12.096;2022-09-02T13:41:42;34.40;42.30
24374;DHT22;12498;50.880;12.096;2022-09-02T13:44:20;33.30;42.80
24374;DHT22;12498;50.880;12.096;2022-09-02T13:46:52;32.00;44.40
24374;DHT22;12498;50.880;12.096;2022-09-02T13:49:24;31.00;45.40
24374;DHT22;12498;50.880;12.096;2022-09-02T13:51:53;30.60;46.10
24374;DHT22;12498;50.880;12.096;2022-09-02T13:54:32;30.20;46.00
24374;DHT22;12498;50.880;12.096;2022-09-02T13:57:01;30.90;45.50
24374;DHT22;12498;50.880;12.096;2022-09-02T13:59:39;31.70;44.90
24374;DHT22;12498;50.880;12.096;2022-09-02T14:02:31;33.00;44.10
24374;DHT22;12498;50.880;12.096;2022-09-02T14:05:05;33.00;42.90
24374;DHT22;12498;50.880;12.096;2022-09-02T14:07:38;31.80;44.00
24374;DHT22;12498;50.880;12.096;2022-09-02T14:10:07;30.90;45.10
24374;DHT22;12498;50.880;12.096;2022-09-02T14:12:35;30.10;46.90
24374;DHT22;12498;50.880;12.096;2022-09-02T14:15:02;29.30;46.90
24374;DHT22;12498;50.880;12.096;2022-09-02T14:17:29;28.50;47.80
24374;DHT22;12498;50.880;12.096;2022-09-02T14:22:40;26.70;51.10
24374;DHT22;12498;50.880;12.096;2022-09-02T14:25:14;26.40;51.40
24374;DHT22;12498;50.880;12.096;2022-09-02T14:27:56;26.50;51.80
24374;DHT22;12498;50.880;12.096;2022-09-02T14:30:34;27.70;50.10
24374;DHT22;12498;50.880;12.096;2022-09-02T14:33:27;27.80;49.60
24374;DHT22;12498;50.880;12.096;2022-09-02T14:43:48;25.90;53.00
24374;DHT22;12498;50.880;12.096;2022-09-02T14:53:58;25.00;54.00
24374;DHT22;12498;50.880;12.096;2022-09-02T14:56:52;24.80;55.10
24374;DHT22;12498;50.880;12.096;2022-09-02T14:59:18;24.70;55.00
24374;DHT22;12498;50.880;12.096;2022-09-02T15:01:47;24.70;55.10
24374;DHT22;12498;50.880;12.096;2022-09-02T15:04:15;25.00;54.60
24374;DHT22;12498;50.880;12.096;2022-09-02T15:06:41;25.00;55.00
24374;DHT22;12498;50.880;12.096;2022-09-02T15:09:07;25.10;54.70
24374;DHT22;12498;50.880;12.096;2022-09-02T15:11:33;25.50;55.10
24374;DHT22;12498;50.880;12.096;2022-09-02T15:14:00;25.70;53.60
24374;DHT22;12498;50.880;12.096;2022-09-02T15:16:25;25.60;54.90
24374;DHT22;12498;50.880;12.096;2022-09-02T15:18:51;25.50;53.30
24374;DHT22;12498;50.880;12.096;2022-09-02T15:21:17;25.20;53.50
24374;DHT22;12498;50.880;12.096;2022-09-02T15:23:43;25.00;53.80
24374;DHT22;12498;50.880;12.096;2022-09-02T15:26:11;24.60;55.10
24374;DHT22;12498;50.880;12.096;2022-09-02T15:28:37;24.60;54.90
24374;DHT22;12498;50.880;12.096;2022-09-02T15:31:03;24.30;55.40
24374;DHT22;12498;50.880;12.096;2022-09-02T15:33:29;24.20;55.50
24374;DHT22;12498;50.880;12.096;2022-09-02T15:36:04;24.10;56.70
24374;DHT22;12498;50.880;12.096;2022-09-02T15:38:30;24.00;56.30
24374;DHT22;12498;50.880;12.096;2022-09-02T15:40:55;23.70;57.20
24374;DHT22;12498;50.880;12.096;2022-09-02T15:43:21;23.60;57.90
24374;DHT22;12498;50.880;12.096;2022-09-02T15:45:47;23.50;58.00
24374;DHT22;12498;50.880;12.096;2022-09-02T15:48:13;23.30;58.00
24374;DHT22;12498;50.880;12.096;2022-09-02T15:50:39;23.10;59.20
24374;DHT22;12498;50.880;12.096;2022-09-02T15:53:05;23.00;59.30
24374;DHT22;12498;50.880;12.096;2022-09-02T15:55:31;22.80;60.20
24374;DHT22;12498;50.880;12.096;2022-09-02T15:57:57;22.60;60.10
24374;DHT22;12498;50.880;12.096;2022-09-02T16:00:24;22.50;59.50
24374;DHT22;12498;50.880;12.096;2022-09-02T16:02:54;22.50;60.10
24374;DHT22;12498;50.880;12.096;2022-09-02T16:05:21;22.40;60.60
24374;DHT22;12498;50.880;12.096;2022-09-02T16:07:48;22.30;60.80
24374;DHT22;12498;50.880;12.096;2022-09-02T16:10:16;22.10;61.60
24374;DHT22;12498;50.880;12.096;2022-09-02T16:12:42;22.10;62.50
24374;DHT22;12498;50.880;12.096;2022-09-02T16:15:07;22.10;62.90
24374;DHT22;12498;50.880;12.096;2022-09-02T16:17:33;22.00;63.30
24374;DHT22;12498;50.880;12.096;2022-09-02T16:19:59;22.00;63.70
24374;DHT22;12498;50.880;12.096;2022-09-02T16:22:24;21.90;63.40
24374;DHT22;12498;50.880;12.096;2022-09-02T16:24:50;21.80;63.40
24374;DHT22;12498;50.880;12.096;2022-09-02T16:27:16;21.80;64.40
24374;DHT22;12498;50.880;12.096;2022-09-02T16:30:01;21.70;65.10
24374;DHT22;12498;50.880;12.096;2022-09-02T16:32:27;21.90;64.60
24374;DHT22;12498;50.880;12.096;2022-09-02T16:34:52;22.20;63.10
24374;DHT22;12498;50.880;12.096;2022-09-02T16:37:20;22.40;62.90
24374;DHT22;12498;50.880;12.096;2022-09-02T16:39:45;22.60;63.10
24374;DHT22;12498;50.880;12.096;2022-09-02T16:42:11;22.80;61.90
24374;DHT22;12498;50.880;12.096;2022-09-02T16:44:36;22.60;62.10
24374;DHT22;12498;50.880;12.096;2022-09-02T16:47:03;22.30;61.50
24374;DHT22;12498;50.880;12.096;2022-09-02T16:49:28;22.10;62.80
24374;DHT22;12498;50.880;12.096;2022-09-02T16:51:54;21.90;62.70
24374;DHT22;12498;50.880;12.096;2022-09-02T16:54:19;21.80;63.90
24374;DHT22;12498;50.880;12.096;2022-09-02T16:56:45;21.60;64.00
24374;DHT22;12498;50.880;12.096;2022-09-02T16:59:11;21.40;64.30
24374;DHT22;12498;50.880;12.096;2022-09-02T17:01:38;21.20;66.40
24374;DHT22;12498;50.880;12.096;2022-09-02T17:04:05;21.20;67.10
24374;DHT22;12498;50.880;12.096;2022-09-02T17:06:31;21.10;67.60
24374;DHT22;12498;50.880;12.096;2022-09-02T17:08:57;21.00;67.30
24374;DHT22;12498;50.880;12.096;2022-09-02T17:11:25;21.00;67.10
24374;DHT22;12498;50.880;12.096;2022-09-02T17:14:03;20.90;67.40
24374;DHT22;12498;50.880;12.096;2022-09-02T17:16:31;20.80;68.90
24374;DHT22;12498;50.880;12.096;2022-09-02T17:18:58;20.60;69.30
24374;DHT22;12498;50.880;12.096;2022-09-02T17:21:33;20.50;69.40
24374;DHT22;12498;50.880;12.096;2022-09-02T17:24:00;20.40;70.20
24374;DHT22;12498;50.880;12.096;2022-09-02T17:26:28;20.10;71.10
24374;DHT22;12498;50.880;12.096;2022-09-02T17:28:55;20.00;71.50
24374;DHT22;12498;50.880;12.096;2022-09-02T17:31:29;20.00;72.00
24374;DHT22;12498;50.880;12.096;2022-09-02T17:33:57;19.90;72.40
24374;DHT22;12498;50.880;12.096;2022-09-02T17:36:24;19.80;72.20
24374;DHT22;12498;50.880;12.096;2022-09-02T17:38:55;19.60;73.20
24374;DHT22;12498;50.880;12.096;2022-09-02T17:41:22;19.50;73.40
24374;DHT22;12498;50.880;12.096;2022-09-02T17:44:06;19.40;75.50
24374;DHT22;12498;50.880;12.096;2022-09-02T17:46:32;19.30;75.00
24374;DHT22;12498;50.880;12.096;2022-09-02T17:48:57;19.20;76.30
24374;DHT22;12498;50.880;12.096;2022-09-02T17:51:23;19.10;76.60
24374;DHT22;12498;50.880;12.096;2022-09-02T17:53:49;19.10;77.50
24374;DHT22;12498;50.880;12.096;2022-09-02T17:59:19;18.80;78.80